Time;durP1;ratioP1;P1;durP2;ratioP2;P2;SDS_P1;SDS_P2;PMS_P1;PMS_P2;Temp;Humidity;BMP_temperature;BMP_pressure;BME280_temperature;BME280_humidity;BME280_pressure;Samples;Min_cycle;Max_cycle;Signal;HPM_P1;HPM_P2
2022/09/26 00:09:06;;;;;;;16.30;8.83;;;11.00;99.90;;;;;;20811036;28;20045;-75
2022/09/26 00:19:07;;;;;;;18.73;9.23;;;11.00;99.90;;;;;;20828928;28;20037;-75
2022/09/26 00:29:10;;;;;;;22.30;9.73;;;11.00;99.90;;;;;;20828352;28;20033;-75
2022/09/26 00:39:14;;;;;;;15.95;9.15;;;11.00;99.90;;;;;;20809854;28;20072;-75
2022/09/26 00:49:20;;;;;;;13.93;7.68;;;11.00;99.90;;;;;;20809563;28;20515;-75
2022/09/26 00:59:30;;;;;;;19.30;10.30;;;11.00;99.90;;;;;;20808264;28;20041;-76
2022/09/26 01:09:31;;;;;;;18.73;9.93;;;10.90;99.90;;;;;;20827764;28;20465;-76
2022/09/26 01:19:34;;;;;;;22.27;10.33;;;10.90;99.90;;;;;;20791894;28;20041;-75
2022/09/26 01:30:03;;;;;;;19.48;10.07;;;10.90;99.90;;;;;;20808916;28;20037;-75
2022/09/26 01:40:20;;;;;;;;;;;10.80;99.90;;;;;;20793751;28;20045;-75
2022/09/26 01:50:42;;;;;;;13.05;7.43;;;10.80;99.90;;;;;;20807366;28;19960;-75
2022/09/26 02:00:46;;;;;;;13.85;8.40;;;10.80;99.90;;;;;;20824921;28;20412;-75
2022/09/26 02:10:51;;;;;;;18.95;9.50;;;10.80;99.90;;;;;;20824975;28;20510;-76
2022/09/26 02:21:00;;;;;;;18.67;9.77;;;10.80;99.90;;;;;;20806967;28;20156;-76
2022/09/26 02:31:07;;;;;;;18.87;10.07;;;10.90;99.90;;;;;;20807927;28;20041;-76
2022/09/26 02:41:17;;;;;;;19.48;9.38;;;10.80;99.90;;;;;;20821612;28;20044;-76
2022/09/26 02:51:22;;;;;;;19.83;9.13;;;10.80;99.90;;;;;;20821105;28;20045;-75
2022/09/26 03:01:30;;;;;;;16.38;8.52;;;10.80;99.90;;;;;;20819373;28;20527;-76
2022/09/26 03:11:33;;;;;;;18.38;8.18;;;10.80;99.90;;;;;;20818896;28;20054;-76
2022/09/26 03:21:35;;;;;;;15.02;7.60;;;10.70;99.90;;;;;;20817613;28;20123;-75
2022/09/26 03:31:36;;;;;;;16.25;9.48;;;10.70;99.90;;;;;;20815956;28;20472;-76
2022/09/26 03:41:41;;;;;;;17.48;9.13;;;10.80;99.90;;;;;;20815054;28;20120;-77
2022/09/26 03:51:43;;;;;;;19.27;10.17;;;10.80;99.90;;;;;;20831968;28;20515;-77
2022/09/26 04:01:44;;;;;;;26.85;11.88;;;10.70;99.90;;;;;;20813503;28;20041;-77
2022/09/26 04:11:46;;;;;;;28.40;13.30;;;10.70;99.90;;;;;;20813339;28;20041;-77
2022/09/26 04:21:47;;;;;;;32.10;12.63;;;10.80;99.90;;;;;;20832329;28;20036;-77
2022/09/26 04:31:50;;;;;;;21.38;9.68;;;10.70;99.90;;;;;;20813327;28;20184;-76
2022/09/26 04:41:54;;;;;;;21.83;8.35;;;10.70;99.90;;;;;;20811117;28;20049;-76
2022/09/26 04:51:55;;;;;;;16.42;8.35;;;10.60;99.90;;;;;;20783528;28;20392;-76
2022/09/26 05:01:56;;;;;;;19.40;9.47;;;10.50;99.90;;;;;;20712070;28;20044;-76
2022/09/26 05:12:10;;;;;;;17.52;8.63;;;10.50;99.90;;;;;;20728296;28;20042;-76
2022/09/26 05:22:12;;;;;;;21.92;9.68;;;10.50;99.90;;;;;;20728817;28;20038;-76
2022/09/26 05:32:19;;;;;;;17.97;9.00;;;10.60;99.90;;;;;;20730448;28;20049;-75
2022/09/26 05:42:21;;;;;;;16.58;7.78;;;10.50;99.90;;;;;;20728179;28;20527;-76
2022/09/26 05:52:22;;;;;;;10.50;5.87;;;10.40;99.90;;;;;;20733599;28;20037;-76
2022/09/26 06:02:25;;;;;;;10.02;4.97;;;10.40;99.90;;;;;;20728405;28;20034;-76
2022/09/26 06:12:37;;;;;;;14.05;5.38;;;10.40;99.90;;;;;;20740690;28;20049;-76
2022/09/26 06:22:42;;;;;;;7.75;4.38;;;11.10;99.90;;;;;;20733608;28;20044;-76
2022/09/26 06:32:45;;;;;;;15.38;7.10;;;11.40;99.90;;;;;;20733224;28;20038;-76
2022/09/26 06:42:54;;;;;;;11.98;5.78;;;11.60;99.90;;;;;;20734636;28;20034;-76
2022/09/26 06:53:18;;;;;;;18.77;7.82;;;11.80;99.90;;;;;;20738812;28;20064;-75
2022/09/26 07:03:19;;;;;;;17.03;8.67;;;11.40;99.90;;;;;;20759413;28;20053;-75
2022/09/26 07:13:29;;;;;;;21.10;9.35;;;11.30;99.90;;;;;;20749720;28;20046;-76
2022/09/26 07:23:31;;;;;;;14.60;7.72;;;11.60;99.90;;;;;;20757250;28;20041;-76
2022/09/26 07:33:32;;;;;;;12.65;6.70;;;11.70;99.90;;;;;;20754900;28;20213;-75
2022/09/26 07:43:38;;;;;;;12.57;6.45;;;11.80;99.90;;;;;;20755323;28;20390;-76
2022/09/26 07:53:40;;;;;;;13.33;7.23;;;12.50;99.90;;;;;;20753770;28;20065;-76
2022/09/26 08:16:38;;;;;;;14.20;6.65;;;12.70;99.90;;;;;;20665292;28;20077;-75
2022/09/26 08:50:40;;;;;;;12.32;5.38;;;14.10;99.90;;;;;;20740176;28;20045;-76
2022/09/26 09:36:29;;;;;;;9.25;4.45;;;16.70;99.90;;;;;;20906585;28;20119;-75
2022/09/26 09:59:05;;;;;;;;;;;;;;;;;;;;;
2022/09/26 10:10:46;;;;;;;;;;;;;;;;;;;;;
2022/09/26 10:33:38;;;;;;;;;;;;;;;;;;;;;
2022/09/26 10:44:45;;;;;;;3.08;2.00;;;18.60;99.90;;;;;;20673929;28;20030;-76
2022/09/26 10:55:44;;;;;;;5.20;2.55;;;18.20;99.90;;;;;;20715249;28;20046;-75
2022/09/26 11:52:04;;;;;;;4.63;1.27;;;15.40;99.90;;;;;;21096501;28;20032;-76
2022/09/26 12:03:34;;;;;;;1.42;1.00;;;14.20;99.90;;;;;;21101683;28;20044;-76
2022/09/26 13:12:37;;;;;;;;;;;;;;;;;;;;;
2022/09/26 13:23:42;;;;;;;;;;;;;;;;;;;;;
2022/09/26 13:46:14;;;;;;;4.85;2.60;;;14.80;99.90;;;;;;21170533;22;20048;-77
2022/09/26 13:56:30;;;;;;;5.55;3.03;;;15.40;99.90;;;;;;21135309;28;20111;-77
2022/09/26 14:06:30;;;;;;;8.52;4.13;;;15.30;99.90;;;;;;21059147;28;20048;-78
2022/09/26 14:16:34;;;;;;;2.60;1.73;;;15.10;99.90;;;;;;21077673;28;20393;-76
2022/09/26 14:26:43;;;;;;;3.65;1.95;;;15.20;99.90;;;;;;21076999;28;20530;-77
2022/09/26 14:36:45;;;;;;;5.40;3.00;;;15.10;99.90;;;;;;21087183;28;20114;-77
2022/09/26 14:46:52;;;;;;;5.68;2.45;;;15.10;99.90;;;;;;21085913;28;20619;-77
2022/09/26 14:57:05;;;;;;;5.78;2.22;;;15.00;99.90;;;;;;21084379;28;20040;-76
2022/09/26 15:07:15;;;;;;;4.80;1.75;;;15.10;99.90;;;;;;21023895;28;20036;-76
2022/09/26 15:17:22;;;;;;;4.40;1.90;;;15.20;99.90;;;;;;21039494;28;20038;-76
2022/09/26 15:27:27;;;;;;;6.70;1.92;;;15.30;99.90;;;;;;21024464;28;20592;-77
2022/09/26 15:37:31;;;;;;;9.43;4.32;;;15.10;99.90;;;;;;21041098;28;20040;-76
2022/09/26 15:47:41;;;;;;;2.70;1.70;;;14.80;99.90;;;;;;21038063;28;20035;-77
2022/09/26 15:57:43;;;;;;;4.90;1.25;;;14.80;99.90;;;;;;21007003;28;20059;-77
2022/09/26 16:07:49;;;;;;;1.98;1.40;;;14.70;99.90;;;;;;21078519;28;20028;-77
2022/09/26 16:17:53;;;;;;;2.65;1.60;;;14.60;99.90;;;;;;21035939;28;20449;-79
2022/09/26 16:27:59;;;;;;;3.78;1.77;;;14.50;99.90;;;;;;21072521;28;20552;-78
2022/09/26 16:38:04;;;;;;;2.80;1.77;;;14.10;99.90;;;;;;21019032;28;20071;-78
2022/09/26 16:48:05;;;;;;;2.50;1.10;;;13.90;99.90;;;;;;21019835;28;20036;-78
2022/09/26 16:58:05;;;;;;;2.43;0.77;;;13.80;99.90;;;;;;21048328;28;20044;-77
2022/09/26 17:08:09;;;;;;;1.90;0.93;;;13.40;99.90;;;;;;20983723;28;20095;-78
2022/09/26 17:18:12;;;;;;;1.65;1.20;;;13.00;99.90;;;;;;21001764;28;20035;-77
2022/09/26 17:28:24;;;;;;;3.90;1.10;;;12.80;99.90;;;;;;21041541;28;20047;-77
2022/09/26 17:38:25;;;;;;;1.90;1.15;;;12.70;99.90;;;;;;21035011;28;20035;-76
2022/09/26 17:48:32;;;;;;;3.80;1.30;;;12.70;99.90;;;;;;21034594;28;20039;-77
2022/09/26 17:58:33;;;;;;;8.63;4.25;;;12.60;99.90;;;;;;21033678;28;20040;-78
2022/09/26 18:08:39;;;;;;;5.78;1.52;;;12.80;99.90;;;;;;21053305;28;20040;-78
2022/09/26 18:18:40;;;;;;;5.00;2.00;;;12.50;99.90;;;;;;21052748;28;20025;-77
2022/09/26 18:28:41;;;;;;;7.13;2.37;;;12.20;99.90;;;;;;21053283;28;20044;-78
2022/09/26 18:38:41;;;;;;;5.07;2.20;;;12.30;99.90;;;;;;21048255;28;20051;-77
2022/09/26 18:48:43;;;;;;;3.47;2.00;;;11.80;99.90;;;;;;21042839;28;20036;-77
2022/09/26 18:58:46;;;;;;;;;;;11.70;99.90;;;;;;21041927;28;20560;-77
2022/09/26 19:08:50;;;;;;;7.85;1.80;;;11.60;99.90;;;;;;21021245;28;19916;-77
2022/09/26 19:18:51;;;;;;;6.57;2.40;;;11.70;99.90;;;;;;21039739;28;20116;-77
2022/09/26 19:28:54;;;;;;;3.83;1.73;;;11.60;99.90;;;;;;21040585;28;20040;-77
2022/09/26 19:38:54;;;;;;;4.40;1.60;;;11.50;99.90;;;;;;21047133;28;20032;-80
2022/09/26 19:48:56;;;;;;;3.67;1.80;;;11.50;99.90;;;;;;21052187;22;20043;-75
2022/09/26 19:58:58;;;;;;;2.83;1.60;;;11.50;99.90;;;;;;21017092;28;20031;-75
2022/09/26 20:09:00;;;;;;;3.67;1.92;;;11.40;99.90;;;;;;20978442;28;20124;-75
2022/09/26 20:19:03;;;;;;;3.90;1.95;;;11.10;99.90;;;;;;20942846;28;20044;-75
2022/09/26 20:29:08;;;;;;;15.95;7.63;;;11.00;99.90;;;;;;20935291;28;20411;-74
2022/09/26 20:39:19;;;;;;;4.15;2.08;;;11.00;99.90;;;;;;20909466;28;20041;-74
2022/09/26 20:49:26;;;;;;;2.53;1.97;;;10.90;99.90;;;;;;20891015;28;20499;-76
2022/09/26 20:59:28;;;;;;;3.67;2.03;;;10.90;99.90;;;;;;20891019;28;20279;-74
2022/09/26 21:09:28;;;;;;;4.57;2.17;;;10.90;99.90;;;;;;20982219;28;20090;-74
2022/09/26 21:19:31;;;;;;;9.37;2.50;;;10.90;99.90;;;;;;20990070;28;20451;-75
2022/09/26 21:29:42;;;;;;;3.23;2.20;;;10.80;99.90;;;;;;20971553;28;20044;-75
2022/09/26 21:39:43;;;;;;;4.88;2.92;;;10.80;99.90;;;;;;20961365;28;20036;-75
2022/09/26 21:49:45;;;;;;;5.50;2.53;;;10.70;99.90;;;;;;20985091;28;20146;-75
2022/09/26 21:59:48;;;;;;;4.03;2.22;;;10.70;99.90;;;;;;21001605;28;20041;-75
2022/09/26 22:09:49;;;;;;;3.53;2.03;;;10.50;99.90;;;;;;20983157;28;20390;-75
2022/09/26 22:19:50;;;;;;;8.50;2.47;;;10.60;99.90;;;;;;20999522;28;20032;-75
2022/09/26 22:29:51;;;;;;;8.95;2.65;;;10.60;99.90;;;;;;21002398;28;20560;-75
2022/09/26 22:39:52;;;;;;;4.17;3.10;;;10.60;99.90;;;;;;21002004;28;20103;-76
2022/09/26 22:49:53;;;;;;;6.87;3.10;;;10.60;99.90;;;;;;21000394;28;20523;-76
2022/09/26 22:59:54;;;;;;;3.27;2.63;;;10.60;99.90;;;;;;21000466;28;20032;-76
2022/09/26 23:09:55;;;;;;;7.53;3.47;;;10.60;99.90;;;;;;20982021;28;20041;-76
2022/09/26 23:19:55;;;;;;;8.33;3.40;;;10.50;99.90;;;;;;20999273;28;20037;-76
2022/09/26 23:29:56;;;;;;;6.50;3.60;;;10.60;99.90;;;;;;20997824;28;20048;-75
2022/09/26 23:39:57;;;;;;;6.40;2.80;;;10.50;99.90;;;;;;20997743;28;20525;-75
2022/09/26 23:49:58;;;;;;;7.30;3.40;;;10.40;99.90;;;;;;20996336;28;20574;-75
2022/09/26 23:59:59;;;;;;;5.97;4.10;;;10.50;99.90;;;;;;20995218;28;20450;-75
